createdAt,value
2023-04-02T00:01:39.039Z,98897.94
2023-04-02T00:04:23.279Z,98886.78
2023-04-02T00:07:15.452Z,98892.84
2023-04-02T00:09:43.862Z,98893.91
2023-04-02T00:12:19.138Z,98894.13
2023-04-02T00:14:52.359Z,98890.22
2023-04-02T00:17:28.346Z,98894.69
2023-04-02T00:20:06.818Z,98901.06
2023-04-02T00:22:34.679Z,98896.13
2023-04-02T00:25:11.307Z,98897.81
2023-04-02T00:27:39.589Z,98905.72
2023-04-02T00:30:08.984Z,98897.81
2023-04-02T00:32:37.365Z,98906.44
2023-04-02T00:35:12.224Z,98907.91
2023-04-02T00:37:44.127Z,98900.97
2023-04-02T00:40:21.522Z,98904.72
2023-04-02T00:42:54.358Z,98906.00
2023-04-02T00:45:25.287Z,98915.19
2023-04-02T00:47:53.328Z,98915.00
2023-04-02T00:50:22.801Z,98918.78
2023-04-02T00:52:53.401Z,98923.81
2023-04-02T00:55:39.571Z,98922.84
2023-04-02T00:58:27.395Z,98925.59
2023-04-02T01:00:56.786Z,98921.31
2023-04-02T01:03:35.387Z,98921.00
2023-04-02T01:06:13.123Z,98915.91
2023-04-02T01:09:03.485Z,98923.16
2023-04-02T01:11:44.292Z,98915.03
2023-04-02T01:14:55.469Z,98908.88
2023-04-02T01:17:33.087Z,98913.22
2023-04-02T01:20:12.924Z,98914.78
2023-04-02T01:23:00.074Z,98917.28
2023-04-02T01:25:39.030Z,98920.41
2023-04-02T01:28:21.906Z,98926.28
2023-04-02T01:30:58.298Z,98930.88
2023-04-02T01:33:30.611Z,98925.66
2023-04-02T01:36:10.833Z,98930.41
2023-04-02T01:38:50.991Z,98926.97
2023-04-02T01:41:51.193Z,98927.72
2023-04-02T01:44:28.400Z,98924.22
2023-04-02T01:47:00.803Z,98932.66
2023-04-02T01:49:29.310Z,98927.28
2023-04-02T01:51:58.446Z,98930.03
2023-04-02T01:54:28.865Z,98942.97
2023-04-02T01:56:57.767Z,98938.53
2023-04-02T01:59:26.482Z,98936.44
2023-04-02T02:02:04.828Z,98933.91
2023-04-02T02:04:34.119Z,98946.84
2023-04-02T02:07:03.451Z,98943.44
2023-04-02T02:09:34.483Z,98945.91
2023-04-02T02:12:04.299Z,98943.66
2023-04-02T02:14:32.762Z,98950.28
2023-04-02T02:17:02.471Z,98946.69
2023-04-02T02:19:52.140Z,98949.22
2023-04-02T02:22:38.856Z,98951.28
2023-04-02T02:25:14.884Z,98953.66
2023-04-02T02:27:55.662Z,98947.44
2023-04-02T02:30:43.867Z,98946.00
2023-04-02T02:33:22.420Z,98948.19
2023-04-02T02:36:02.976Z,98944.84
2023-04-02T02:38:34.253Z,98954.75
2023-04-02T02:41:26.488Z,98957.09
2023-04-02T02:44:12.100Z,98959.69
2023-04-02T02:46:47.143Z,98964.59
2023-04-02T02:49:18.665Z,98963.38
2023-04-02T02:51:54.163Z,98963.19
2023-04-02T02:54:25.476Z,98955.66
2023-04-02T02:56:58.256Z,98953.66
2023-04-02T02:59:29.206Z,98949.81
2023-04-02T03:01:57.347Z,98950.66
2023-04-02T03:04:25.634Z,98950.25
2023-04-02T03:06:56.380Z,98955.38
2023-04-02T03:09:35.301Z,98951.94
2023-04-02T03:12:13.638Z,98954.41
2023-04-02T03:14:47.498Z,98946.28
2023-04-02T03:17:37.806Z,98949.41
2023-04-02T03:20:40.490Z,98946.09
2023-04-02T03:23:22.707Z,98952.13
2023-04-02T03:25:59.706Z,98950.06
2023-04-02T03:28:34.786Z,98950.63
2023-04-02T03:31:06.951Z,98962.34
2023-04-02T03:33:42.529Z,98968.22
2023-04-02T03:36:47.081Z,98959.78
2023-04-02T03:39:39.654Z,98959.22
2023-04-02T03:42:21.831Z,98964.72
2023-04-02T03:45:24.822Z,98968.75
2023-04-02T03:48:02.208Z,98974.78
2023-04-02T03:50:34.762Z,98973.47
2023-04-02T03:53:03.712Z,98985.16
2023-04-02T03:55:37.411Z,98974.38
2023-04-02T03:58:11.573Z,98982.34
2023-04-02T04:00:41.477Z,98980.44
2023-04-02T04:03:13.766Z,98986.13
2023-04-02T04:06:09.044Z,98989.69
2023-04-02T04:09:15.269Z,98990.94
2023-04-02T04:11:50.331Z,98987.03
2023-04-02T04:14:22.405Z,98991.31
2023-04-02T04:16:53.595Z,98996.97
2023-04-02T04:19:30.160Z,99004.47
2023-04-02T04:22:10.892Z,99003.63
2023-04-02T04:24:46.210Z,99002.44
2023-04-02T04:27:34.051Z,99003.63
2023-04-02T04:30:20.528Z,99017.72
2023-04-02T04:33:01.219Z,99003.97
2023-04-02T04:35:39.319Z,99009.13
2023-04-02T04:38:22.079Z,99019.31
2023-04-02T04:41:01.280Z,99025.13
2023-04-02T04:43:46.783Z,99030.56
2023-04-02T04:46:20.505Z,99033.78
2023-04-02T04:48:55.402Z,99020.50
2023-04-02T04:51:30.202Z,99024.06
2023-04-02T04:54:02.114Z,99024.56
2023-04-02T04:56:34.168Z,99018.00
2023-04-02T04:59:27.321Z,99016.03
2023-04-02T05:02:06.741Z,99014.62
2023-04-02T05:04:43.236Z,99015.97
2023-04-02T05:07:30.145Z,99021.19
2023-04-02T05:10:04.512Z,99018.22
2023-04-02T05:12:45.988Z,99026.13
2023-04-02T05:15:23.274Z,99016.44
2023-04-02T05:18:01.878Z,99023.97
2023-04-02T05:20:33.939Z,99026.16
2023-04-02T05:23:13.768Z,99020.16
2023-04-02T05:25:59.518Z,99026.72
2023-04-02T05:28:36.229Z,99031.13
2023-04-02T05:34:03.902Z,99029.16
2023-04-02T05:36:34.322Z,99041.84
2023-04-02T05:39:10.337Z,99033.75
2023-04-02T05:41:44.817Z,99037.78
2023-04-02T05:44:21.238Z,99034.97
2023-04-02T05:46:58.065Z,99047.87
2023-04-02T05:49:36.941Z,99041.09
2023-04-02T05:52:25.196Z,99041.59
2023-04-02T05:55:12.308Z,99046.38
2023-04-02T05:58:10.452Z,99052.78
2023-04-02T06:00:48.546Z,99053.97
2023-04-02T06:03:36.292Z,99049.13
2023-04-02T06:06:21.741Z,99046.25
2023-04-02T06:08:57.901Z,99046.34
2023-04-02T06:14:18.228Z,99046.25
2023-04-02T06:16:50.254Z,99052.94
2023-04-02T06:19:31.816Z,99060.59
2023-04-02T06:22:38.325Z,99061.28
2023-04-02T06:25:25.285Z,99061.19
2023-04-02T06:28:02.156Z,99062.75
2023-04-02T06:30:42.265Z,99062.78
2023-04-02T06:33:15.285Z,99066.91
2023-04-02T06:35:51.237Z,99064.88
2023-04-02T06:38:31.523Z,99074.69
2023-04-02T06:41:10.888Z,99073.91
2023-04-02T06:43:54.399Z,99075.66
2023-04-02T06:46:32.024Z,99075.75
2023-04-02T06:49:20.184Z,99078.31
2023-04-02T06:51:59.139Z,99085.75
2023-04-02T06:54:31.903Z,99079.50
2023-04-02T06:57:09.215Z,99077.91
2023-04-02T07:02:36.471Z,99076.41
2023-04-02T07:05:11.137Z,99075.44
2023-04-02T07:07:45.199Z,99071.72
2023-04-02T07:10:15.973Z,99078.22
2023-04-02T07:12:49.625Z,99086.50
2023-04-02T07:18:03.577Z,99080.88
2023-04-02T07:20:38.537Z,99083.41
2023-04-02T07:23:11.368Z,99089.56
2023-04-02T07:25:47.158Z,99092.03
2023-04-02T07:28:24.324Z,99094.66
2023-04-02T07:33:36.478Z,99096.59
2023-04-02T07:36:05.836Z,99104.56
2023-04-02T07:38:34.490Z,99094.47
2023-04-02T07:41:07.139Z,99100.22
2023-04-02T07:43:37.528Z,99104.69
2023-04-02T07:46:13.209Z,99103.94
2023-04-02T07:48:44.204Z,99107.94
2023-04-02T07:51:20.286Z,99105.19
2023-04-02T07:53:59.504Z,99103.63
2023-04-02T07:56:29.854Z,99110.59
2023-04-02T07:59:05.292Z,99106.47
2023-04-02T08:01:35.467Z,99110.75
2023-04-02T08:04:08.270Z,99110.75
2023-04-02T08:06:36.772Z,99117.81
2023-04-02T08:09:11.293Z,99118.47
2023-04-02T08:14:21.241Z,99120.59
2023-04-02T08:16:59.483Z,99121.19
2023-04-02T08:19:53.821Z,99122.91
2023-04-02T08:22:29.252Z,99131.38
2023-04-02T08:25:10.210Z,99136.16
2023-04-02T08:27:48.369Z,99135.19
2023-04-02T08:33:00.351Z,99135.84
2023-04-02T08:35:44.261Z,99131.53
2023-04-02T08:38:20.667Z,99136.22
2023-04-02T08:40:55.478Z,99143.34
2023-04-02T08:43:40.986Z,99137.88
2023-04-02T08:49:16.347Z,99151.59
2023-04-02T08:51:46.685Z,99149.63
2023-04-02T08:54:21.235Z,99150.16
2023-04-02T08:57:07.134Z,99151.12
2023-04-02T08:59:40.635Z,99160.75
2023-04-02T09:02:26.538Z,99157.16
2023-04-02T09:05:13.223Z,99149.91
2023-04-02T09:07:48.429Z,99155.09
2023-04-02T09:10:20.588Z,99147.28
2023-04-02T09:12:59.186Z,99153.38
2023-04-02T09:15:36.655Z,99151.91
2023-04-02T09:18:18.442Z,99153.66
2023-04-02T09:20:56.089Z,99159.53
2023-04-02T09:23:28.188Z,99162.47
2023-04-02T09:26:21.331Z,99164.66
2023-04-02T09:28:55.082Z,99165.66
2023-04-02T09:31:43.279Z,99157.38
2023-04-02T09:34:38.457Z,99164.53
2023-04-02T09:37:18.892Z,99176.28
2023-04-02T09:39:50.285Z,99174.91
2023-04-02T09:42:36.473Z,99174.34
2023-04-02T09:48:00.259Z,99178.16
2023-04-02T09:50:35.769Z,99188.16
2023-04-02T09:53:34.077Z,99185.31
2023-04-02T09:59:12.473Z,99186.81
2023-04-02T10:01:53.459Z,99200.37
2023-04-02T10:04:48.253Z,99202.41
2023-04-02T10:07:41.127Z,99209.50
2023-04-02T10:10:22.701Z,99204.41
2023-04-02T10:13:01.888Z,99201.69
2023-04-02T10:15:46.987Z,99190.84
2023-04-02T10:18:51.334Z,99198.66
2023-04-02T10:21:29.845Z,99189.62
2023-04-02T10:24:06.481Z,99183.94
2023-04-02T10:27:17.922Z,99182.72
2023-04-02T10:30:14.494Z,99178.59
2023-04-02T10:32:54.597Z,99181.31
2023-04-02T10:41:36.181Z,99176.72
2023-04-02T10:44:20.910Z,99181.31
2023-04-02T10:46:53.117Z,99173.75
2023-04-02T10:49:28.134Z,99172.09
2023-04-02T10:52:13.344Z,99174.62
2023-04-02T10:54:54.271Z,99165.13
2023-04-02T10:57:35.397Z,99162.16
2023-04-02T11:00:13.991Z,99156.56
2023-04-02T11:05:48.416Z,99166.81
2023-04-02T11:08:37.334Z,99164.59
2023-04-02T11:11:23.367Z,99168.06
2023-04-02T11:14:07.758Z,99162.13
2023-04-02T11:16:46.314Z,99162.84
2023-04-02T11:19:17.496Z,99163.47
2023-04-02T11:22:04.335Z,99161.53
2023-04-02T11:24:49.156Z,99164.19
2023-04-02T11:27:34.488Z,99162.56
2023-04-02T11:30:05.283Z,99159.94
2023-04-02T11:32:49.763Z,99155.72
2023-04-02T11:35:36.511Z,99145.69
2023-04-02T11:38:12.035Z,99150.62
2023-04-02T11:40:54.859Z,99146.22
2023-04-02T11:43:34.308Z,99144.03
2023-04-02T11:46:18.519Z,99150.44
2023-04-02T11:49:22.220Z,99152.81
2023-04-02T11:52:11.613Z,99153.16
2023-04-02T11:54:42.867Z,99146.87
2023-04-02T11:57:44.271Z,99146.22
2023-04-02T12:03:57.236Z,99143.09
2023-04-02T12:06:50.263Z,99135.53
2023-04-02T12:09:27.289Z,99138.00
2023-04-02T12:12:03.476Z,99127.13
2023-04-02T12:14:49.545Z,99137.84
2023-04-02T12:17:30.217Z,99135.97
2023-04-02T12:20:11.312Z,99122.16
2023-04-02T12:22:55.813Z,99124.00
2023-04-02T12:25:41.062Z,99112.59
2023-04-02T12:28:14.646Z,99116.91
2023-04-02T12:30:43.117Z,99108.94
2023-04-02T12:33:37.825Z,99105.12
2023-04-02T12:36:22.539Z,99106.41
2023-04-02T12:39:01.293Z,99096.28
2023-04-02T12:41:34.449Z,99098.94
2023-04-02T12:44:19.461Z,99104.34
2023-04-02T12:46:55.320Z,99095.88
2023-04-02T12:49:38.179Z,99102.00
2023-04-02T12:54:58.691Z,99094.72
2023-04-02T12:57:29.319Z,99098.78
2023-04-02T13:00:20.424Z,99104.00
2023-04-02T13:02:53.418Z,99087.34
2023-04-02T13:08:42.432Z,99092.91
2023-04-02T13:11:11.803Z,99096.19
2023-04-02T13:13:43.792Z,99100.06
2023-04-02T13:16:15.398Z,99099.47
2023-04-02T13:19:09.228Z,99103.75
2023-04-02T13:21:37.282Z,99092.94
2023-04-02T13:24:13.106Z,99100.75
2023-04-02T13:26:47.956Z,99100.41
2023-04-02T13:32:17.334Z,99097.59
2023-04-02T13:34:52.680Z,99103.88
2023-04-02T13:37:28.200Z,99113.19
2023-04-02T13:42:39.202Z,99124.25
2023-04-02T13:45:20.243Z,99134.25
2023-04-02T13:50:34.174Z,99128.66
2023-04-02T13:53:22.262Z,99126.31
2023-04-02T13:56:05.306Z,99127.00
2023-04-02T13:58:41.258Z,99129.84
2023-04-02T14:01:11.627Z,99122.31
2023-04-02T14:03:41.473Z,99134.16
2023-04-02T14:06:29.127Z,99114.47
2023-04-02T14:09:34.316Z,99115.53
2023-04-02T14:12:04.295Z,99116.34
2023-04-02T14:15:04.961Z,99117.53
2023-04-02T14:18:15.269Z,99113.41
2023-04-02T14:21:00.251Z,99106.81
2023-04-02T14:24:09.261Z,99101.84
2023-04-02T14:26:56.251Z,99106.03
2023-04-02T14:29:33.870Z,99104.91
2023-04-02T14:35:30.479Z,99105.50
2023-04-02T14:38:20.395Z,99103.31
2023-04-02T14:40:56.395Z,99121.72
2023-04-02T14:46:32.266Z,99138.44
2023-04-02T14:49:07.405Z,99148.31
2023-04-02T14:51:44.408Z,99147.91
2023-04-02T14:54:39.513Z,99160.94
2023-04-02T14:57:22.325Z,99160.44
2023-04-02T15:00:10.271Z,99161.41
2023-04-02T15:02:52.193Z,99162.94
2023-04-02T15:05:49.565Z,99168.00
2023-04-02T15:08:20.991Z,99162.16
2023-04-02T15:11:09.228Z,99163.81
2023-04-02T15:14:03.325Z,99167.09
2023-04-02T15:16:37.284Z,99165.69
2023-04-02T15:19:14.614Z,99157.50
2023-04-02T15:25:07.284Z,99173.62
2023-04-02T15:28:24.452Z,99172.41
2023-04-02T15:30:59.025Z,99184.84
2023-04-02T15:36:36.396Z,99208.53
2023-04-02T15:39:30.179Z,99211.97
2023-04-02T15:42:17.569Z,99218.06
2023-04-02T15:45:01.267Z,99222.91
2023-04-02T15:47:57.570Z,99225.69
2023-04-02T15:51:07.401Z,99224.75
2023-04-02T15:54:02.716Z,99224.37
2023-04-02T15:56:53.287Z,99237.31
2023-04-02T15:59:30.282Z,99237.66
2023-04-02T16:02:35.641Z,99233.81
2023-04-02T16:05:19.897Z,99246.63
2023-04-02T16:08:11.757Z,99242.22
2023-04-02T16:13:30.630Z,99248.38
2023-04-02T16:16:08.300Z,99233.38
2023-04-02T16:18:51.273Z,99241.78
2023-04-02T16:21:30.301Z,99240.00
2023-04-02T16:23:58.227Z,99235.25
2023-04-02T16:26:36.300Z,99229.56
2023-04-02T16:29:16.409Z,99229.09
2023-04-02T16:32:12.673Z,99236.56
2023-04-02T16:35:09.556Z,99234.81
2023-04-02T16:37:52.350Z,99243.16
2023-04-02T16:40:21.304Z,99235.62
2023-04-02T16:46:10.356Z,99256.81
2023-04-02T16:48:50.516Z,99252.16
2023-04-02T16:51:45.798Z,99261.06
2023-04-02T16:54:33.579Z,99277.87
2023-04-02T16:57:11.504Z,99277.91
2023-04-02T16:59:46.515Z,99283.25
2023-04-02T17:02:46.393Z,99288.28
2023-04-02T17:05:35.268Z,99296.22
2023-04-02T17:08:32.249Z,99304.88
2023-04-02T17:14:06.466Z,99311.38
2023-04-02T17:16:46.150Z,99316.78
2023-04-02T17:19:19.207Z,99319.75
2023-04-02T17:21:54.429Z,99320.59
2023-04-02T17:24:44.861Z,99318.94
2023-04-02T17:27:45.375Z,99331.47
2023-04-02T17:30:44.372Z,99330.41
2023-04-02T17:38:56.301Z,99363.13
2023-04-02T17:41:36.250Z,99367.09
2023-04-02T17:44:22.333Z,99369.97
2023-04-02T17:47:09.692Z,99376.75
2023-04-02T17:49:54.552Z,99376.69
2023-04-02T17:52:41.531Z,99380.22
2023-04-02T17:55:21.202Z,99381.09
2023-04-02T17:58:06.396Z,99382.88
2023-04-02T18:01:08.272Z,99389.63
2023-04-02T18:04:07.348Z,99397.59
2023-04-02T18:06:49.270Z,99397.72
2023-04-02T18:09:35.317Z,99410.75
2023-04-02T18:12:30.229Z,99415.69
2023-04-02T18:15:12.857Z,99424.06
2023-04-02T18:18:16.614Z,99435.31
2023-04-02T18:21:06.483Z,99436.44
2023-04-02T18:23:55.410Z,99446.03
2023-04-02T18:26:33.441Z,99446.13
2023-04-02T18:29:40.335Z,99462.44
2023-04-02T18:32:38.351Z,99458.97
2023-04-02T18:35:34.855Z,99467.84
2023-04-02T18:38:23.874Z,99467.66
2023-04-02T18:41:02.396Z,99470.47
2023-04-02T18:43:46.566Z,99467.16
2023-04-02T18:46:44.275Z,99474.66
2023-04-02T18:49:21.369Z,99488.56
2023-04-02T18:52:05.366Z,99498.19
2023-04-02T18:54:42.330Z,99487.81
2023-04-02T18:57:29.462Z,99499.16
2023-04-02T19:00:10.374Z,99504.28
2023-04-02T19:02:54.067Z,99514.41
2023-04-02T19:05:34.821Z,99522.63
2023-04-02T19:08:20.471Z,99521.06
2023-04-02T19:13:38.993Z,99530.47
2023-04-02T19:22:09.300Z,99543.87
2023-04-02T19:25:06.789Z,99547.94
2023-04-02T19:27:55.248Z,99557.34
2023-04-02T19:30:39.322Z,99566.63
2023-04-02T19:33:34.508Z,99565.59
2023-04-02T19:36:53.638Z,99558.13
2023-04-02T19:39:47.051Z,99575.31
2023-04-02T19:42:33.278Z,99575.16
2023-04-02T19:45:04.419Z,99573.87
2023-04-02T19:47:35.592Z,99583.53
2023-04-02T19:50:06.420Z,99578.19
2023-04-02T19:52:39.542Z,99585.16
2023-04-02T19:55:10.087Z,99580.16
2023-04-02T19:57:42.820Z,99577.66
2023-04-02T20:00:20.384Z,99590.59
2023-04-02T20:02:58.304Z,99591.88
2023-04-02T20:05:26.827Z,99597.37
2023-04-02T20:07:57.428Z,99600.28
2023-04-02T20:10:26.570Z,99602.34
2023-04-02T20:13:00.819Z,99609.81
2023-04-02T20:15:42.118Z,99615.66
2023-04-02T20:18:12.525Z,99622.09
2023-04-02T20:20:52.932Z,99622.25
2023-04-02T20:23:23.395Z,99627.75
2023-04-02T20:26:04.453Z,99618.75
2023-04-02T20:31:12.753Z,99638.34
2023-04-02T20:33:42.629Z,99647.62
2023-04-02T20:36:18.543Z,99643.69
2023-04-02T20:38:51.805Z,99645.16
2023-04-02T20:41:28.275Z,99641.59
2023-04-02T20:43:56.852Z,99641.59
2023-04-02T20:46:29.482Z,99645.63
2023-04-02T20:48:59.447Z,99658.09
2023-04-02T20:51:37.523Z,99651.37
2023-04-02T20:54:06.023Z,99647.78
2023-04-02T20:56:38.231Z,99653.75
2023-04-02T20:59:07.730Z,99665.50
2023-04-02T21:01:40.518Z,99674.28
2023-04-02T21:04:09.418Z,99677.09
2023-04-02T21:06:41.402Z,99674.84
2023-04-02T21:09:19.250Z,99673.97
2023-04-02T21:11:47.209Z,99687.66
2023-04-02T21:14:15.817Z,99684.81
2023-04-02T21:16:48.516Z,99691.56
2023-04-02T21:19:18.851Z,99688.56
2023-04-02T21:21:48.221Z,99700.34
2023-04-02T21:24:20.229Z,99703.09
2023-04-02T21:26:48.243Z,99702.41
2023-04-02T21:29:17.493Z,99699.78
2023-04-02T21:31:45.937Z,99706.75
2023-04-02T21:34:19.575Z,99703.06
2023-04-02T21:36:50.557Z,99705.31
2023-04-02T21:39:24.338Z,99709.41
2023-04-02T21:41:54.718Z,99719.00
2023-04-02T21:44:28.706Z,99721.47
2023-04-02T21:46:59.892Z,99725.38
2023-04-02T21:49:30.139Z,99723.84
2023-04-02T21:51:59.282Z,99728.50
2023-04-02T21:54:27.937Z,99734.44
2023-04-02T21:56:56.546Z,99734.31
2023-04-02T21:59:27.722Z,99726.66
2023-04-02T22:01:56.109Z,99738.28
2023-04-02T22:04:34.401Z,99733.00
2023-04-02T22:07:02.729Z,99738.75
2023-04-02T22:09:33.905Z,99739.25
2023-04-02T22:12:02.511Z,99730.06
2023-04-02T22:14:35.461Z,99738.16
2023-04-02T22:17:04.520Z,99741.91
2023-04-02T22:19:38.217Z,99741.41
2023-04-02T22:22:06.745Z,99750.34
2023-04-02T22:24:35.831Z,99750.66
2023-04-02T22:27:04.768Z,99753.72
2023-04-02T22:29:34.374Z,99753.09
2023-04-02T22:32:06.069Z,99750.41
2023-04-02T22:34:34.714Z,99755.81
2023-04-02T22:37:03.425Z,99751.88
2023-04-02T22:39:32.779Z,99754.69
2023-04-02T22:42:00.747Z,99763.47
2023-04-02T22:44:29.912Z,99758.88
2023-04-02T22:46:57.474Z,99764.81
2023-04-02T22:49:25.626Z,99777.25
2023-04-02T22:51:54.501Z,99777.75
2023-04-02T22:54:22.484Z,99778.13
2023-04-02T22:56:51.711Z,99784.97
2023-04-02T22:59:19.924Z,99780.69
2023-04-02T23:01:49.790Z,99777.53
2023-04-02T23:04:17.821Z,99779.06
2023-04-02T23:06:46.136Z,99786.25
2023-04-02T23:09:14.163Z,99792.78
2023-04-02T23:11:55.601Z,99789.44
2023-04-02T23:14:23.842Z,99794.72
2023-04-02T23:16:51.882Z,99783.38
2023-04-02T23:19:21.458Z,99786.84
2023-04-02T23:21:49.594Z,99788.25
2023-04-02T23:24:18.833Z,99786.19
2023-04-02T23:26:47.435Z,99790.09
2023-04-02T23:29:15.728Z,99792.00
2023-04-02T23:31:44.236Z,99789.84
2023-04-02T23:34:13.277Z,99788.69
2023-04-02T23:36:41.311Z,99791.75
2023-04-02T23:39:13.456Z,99801.00
2023-04-02T23:41:45.317Z,99797.41
2023-04-02T23:44:14.393Z,99800.00
2023-04-02T23:46:42.774Z,99806.44
2023-04-02T23:49:12.734Z,99804.84
2023-04-02T23:51:41.847Z,99807.72
2023-04-02T23:54:12.007Z,99807.28
2023-04-02T23:56:40.563Z,99804.84
2023-04-02T23:59:08.925Z,99804.34
